createdAt,value
2019-01-29T00:00:38.416Z,8.90
2019-01-29T00:03:07.744Z,8.77
2019-01-29T00:05:36.420Z,8.07
2019-01-29T00:08:14.129Z,8.10
2019-01-29T00:10:43.126Z,7.87
2019-01-29T00:13:12.121Z,8.27
2019-01-29T00:15:41.023Z,8.47
2019-01-29T00:18:18.716Z,7.97
2019-01-29T00:20:47.651Z,6.97
2019-01-29T00:23:16.447Z,7.53
2019-01-29T00:25:45.390Z,6.87
2019-01-29T00:28:35.741Z,7.20
2019-01-29T00:31:06.910Z,7.40
2019-01-29T00:33:35.802Z,6.33
2019-01-29T00:36:04.905Z,6.77
2019-01-29T00:38:42.792Z,6.50
2019-01-29T00:41:11.520Z,5.80
2019-01-29T00:43:41.546Z,6.60
2019-01-29T00:46:10.407Z,5.40
2019-01-29T00:48:47.957Z,5.57
2019-01-29T00:51:17.006Z,5.53
2019-01-29T00:53:45.809Z,5.40
2019-01-29T00:56:14.615Z,5.87
2019-01-29T00:58:52.680Z,5.53
2019-01-29T01:01:21.425Z,6.40
2019-01-29T01:03:53.386Z,6.00
2019-01-29T01:06:22.127Z,5.60
2019-01-29T01:09:00.466Z,5.73
2019-01-29T01:11:29.333Z,5.73
2019-01-29T01:13:58.220Z,5.27
2019-01-29T01:16:27.185Z,5.30
2019-01-29T01:19:05.214Z,5.50
2019-01-29T01:21:36.161Z,5.43
2019-01-29T01:24:06.163Z,5.47
2019-01-29T01:26:35.233Z,5.60
2019-01-29T01:29:04.265Z,6.00
2019-01-29T01:31:32.962Z,5.90
2019-01-29T01:34:01.720Z,6.17
2019-01-29T01:36:30.443Z,6.80
2019-01-29T01:39:08.668Z,6.37
2019-01-29T01:41:37.337Z,6.00
2019-01-29T01:44:06.424Z,6.30
2019-01-29T01:46:35.230Z,6.90
2019-01-29T01:49:16.140Z,7.03
2019-01-29T01:51:44.822Z,6.57
2019-01-29T01:54:13.840Z,7.10
2019-01-29T01:56:42.810Z,7.23
2019-01-29T01:59:20.972Z,6.50
2019-01-29T02:01:49.761Z,7.53
2019-01-29T02:04:18.542Z,5.87
2019-01-29T02:06:47.225Z,7.70
2019-01-29T02:09:26.626Z,7.73
2019-01-29T02:11:55.261Z,7.27
2019-01-29T02:14:23.992Z,7.63
2019-01-29T02:16:52.790Z,8.07
2019-01-29T02:19:30.938Z,7.77
2019-01-29T02:21:59.778Z,7.93
2019-01-29T02:24:28.576Z,7.57
2019-01-29T02:26:57.285Z,8.17
2019-01-29T02:29:35.414Z,7.87
2019-01-29T02:32:05.992Z,8.97
2019-01-29T02:34:35.026Z,8.00
2019-01-29T02:37:03.891Z,8.33
2019-01-29T02:39:42.910Z,8.60
2019-01-29T02:42:13.036Z,8.93
2019-01-29T02:44:42.136Z,8.37
2019-01-29T02:47:10.924Z,7.73
2019-01-29T02:49:50.048Z,7.90
2019-01-29T02:52:18.981Z,8.03
2019-01-29T02:54:47.734Z,8.13
2019-01-29T02:57:16.463Z,7.83
2019-01-29T02:59:54.689Z,7.60
2019-01-29T03:02:23.459Z,8.40
2019-01-29T03:04:53.467Z,8.90
2019-01-29T03:07:22.462Z,8.37
2019-01-29T03:10:00.486Z,9.10
2019-01-29T03:12:29.441Z,7.57
2019-01-29T03:14:58.213Z,8.93
2019-01-29T03:17:27.337Z,8.67
2019-01-29T03:20:06.386Z,8.57
2019-01-29T03:22:38.146Z,8.73
2019-01-29T03:25:07.943Z,9.43
2019-01-29T03:27:36.653Z,10.00
2019-01-29T03:30:15.749Z,9.97
2019-01-29T03:32:44.602Z,10.07
2019-01-29T03:35:13.763Z,8.97
2019-01-29T03:37:42.608Z,7.97
2019-01-29T03:40:22.905Z,9.30
2019-01-29T03:42:51.690Z,8.60
2019-01-29T03:45:20.515Z,9.57
2019-01-29T03:47:49.173Z,9.30
2019-01-29T03:50:29.215Z,10.33
2019-01-29T03:52:58.275Z,8.57
2019-01-29T03:55:27.153Z,8.23
2019-01-29T03:57:55.934Z,8.77
2019-01-29T04:00:36.706Z,9.00
2019-01-29T04:03:08.701Z,8.67
2019-01-29T04:05:37.400Z,9.03
2019-01-29T04:08:06.409Z,8.83
2019-01-29T04:10:44.531Z,9.73
2019-01-29T04:13:13.563Z,9.33
2019-01-29T04:15:42.707Z,9.00
2019-01-29T04:18:11.811Z,8.13
2019-01-29T04:20:49.777Z,8.93
2019-01-29T04:23:18.593Z,8.87
2019-01-29T04:25:50.031Z,9.33
2019-01-29T04:28:19.946Z,7.73
2019-01-29T04:30:57.702Z,7.93
2019-01-29T04:33:27.090Z,8.77
2019-01-29T04:35:57.090Z,7.80
2019-01-29T04:38:26.220Z,7.67
2019-01-29T04:41:05.643Z,7.40
2019-01-29T04:43:34.769Z,7.70
2019-01-29T04:46:03.513Z,7.57
2019-01-29T04:48:32.194Z,7.63
2019-01-29T04:51:10.180Z,8.10
2019-01-29T04:53:38.857Z,7.70
2019-01-29T04:56:07.601Z,7.10
2019-01-29T04:58:36.361Z,7.43
2019-01-29T05:01:18.496Z,7.50
2019-01-29T05:03:47.572Z,7.63
2019-01-29T05:06:16.441Z,7.83
2019-01-29T05:08:45.448Z,7.60
2019-01-29T05:11:23.291Z,8.53
2019-01-29T05:13:52.301Z,7.20
2019-01-29T05:16:21.115Z,8.87
2019-01-29T05:18:50.042Z,8.17
2019-01-29T05:21:27.831Z,8.83
2019-01-29T05:23:56.561Z,7.53
2019-01-29T05:26:27.640Z,7.53
2019-01-29T05:28:58.600Z,8.27
2019-01-29T05:31:36.491Z,10.17
2019-01-29T05:34:05.429Z,10.30
2019-01-29T05:36:34.876Z,9.30
2019-01-29T05:39:05.172Z,10.13
2019-01-29T05:44:08.265Z,7.83
2019-01-29T05:46:37.341Z,8.43
2019-01-29T05:49:07.921Z,9.90
2019-01-29T05:51:36.813Z,10.80
2019-01-29T05:54:15.881Z,7.47
2019-01-29T05:56:38.980Z,8.67
2019-01-29T05:59:07.774Z,8.27
2019-01-29T06:01:45.482Z,9.13
2019-01-29T06:04:14.462Z,8.70
2019-01-29T06:06:43.252Z,8.93
2019-01-29T06:09:12.108Z,8.77
2019-01-29T06:11:50.703Z,7.93
2019-01-29T06:14:19.950Z,9.07
2019-01-29T06:16:51.564Z,8.63
2019-01-29T06:19:23.367Z,7.23
2019-01-29T06:22:01.514Z,7.77
2019-01-29T06:24:30.218Z,7.97
2019-01-29T06:26:58.996Z,7.20
2019-01-29T06:29:30.790Z,8.10
2019-01-29T06:32:08.865Z,7.63
2019-01-29T06:34:37.541Z,7.90
2019-01-29T06:37:15.562Z,7.70
2019-01-29T06:39:44.568Z,7.47
2019-01-29T06:42:13.451Z,7.23
2019-01-29T06:44:42.864Z,7.37
2019-01-29T06:49:56.065Z,7.67
2019-01-29T06:52:25.084Z,7.23
2019-01-29T06:54:53.790Z,7.80
2019-01-29T06:57:31.441Z,7.50
2019-01-29T07:00:00.172Z,7.60
2019-01-29T07:02:28.890Z,7.90
2019-01-29T07:04:58.108Z,6.83
2019-01-29T07:07:36.310Z,6.87
2019-01-29T07:10:06.376Z,7.67
2019-01-29T07:12:38.701Z,7.10
2019-01-29T07:15:09.492Z,6.53
2019-01-29T07:17:49.126Z,7.57
2019-01-29T07:20:18.020Z,7.83
2019-01-29T07:22:47.020Z,7.80
2019-01-29T07:25:15.855Z,7.87
2019-01-29T07:30:27.998Z,7.83
2019-01-29T07:32:57.019Z,6.80
2019-01-29T07:35:26.153Z,7.30
2019-01-29T07:38:05.979Z,7.17
2019-01-29T07:40:34.748Z,7.87
2019-01-29T07:43:03.798Z,7.47
2019-01-29T07:45:32.532Z,7.10
2019-01-29T07:50:44.785Z,7.57
2019-01-29T07:53:13.568Z,7.10
2019-01-29T07:55:42.329Z,7.77
2019-01-29T07:58:20.322Z,7.63
2019-01-29T08:00:49.313Z,7.20
2019-01-29T08:03:18.057Z,8.00
2019-01-29T08:05:46.770Z,7.13
2019-01-29T08:08:24.759Z,7.33
2019-01-29T08:10:53.853Z,7.33
2019-01-29T08:13:22.660Z,7.27
2019-01-29T08:15:51.367Z,7.30
2019-01-29T08:18:29.141Z,7.57
2019-01-29T08:20:57.940Z,8.47
2019-01-29T08:23:26.758Z,8.23
2019-01-29T08:25:55.729Z,7.73
2019-01-29T08:28:33.834Z,7.30
2019-01-29T08:31:02.882Z,7.30
2019-01-29T08:33:31.569Z,7.57
2019-01-29T08:36:00.246Z,7.53
2019-01-29T08:38:38.082Z,7.90
2019-01-29T08:41:06.800Z,8.53
2019-01-29T08:43:38.596Z,8.23
2019-01-29T08:46:07.430Z,8.63
2019-01-29T08:48:45.296Z,9.27
2019-01-29T08:51:15.466Z,8.87
2019-01-29T08:53:44.163Z,8.07
2019-01-29T08:56:14.772Z,8.30
2019-01-29T08:58:52.692Z,8.60
2019-01-29T09:01:21.496Z,8.50
2019-01-29T09:03:51.593Z,9.00
2019-01-29T09:06:23.048Z,7.97
2019-01-29T09:09:00.910Z,9.13
2019-01-29T09:11:29.931Z,8.97
2019-01-29T09:14:01.306Z,8.30
2019-01-29T09:16:30.096Z,8.77
2019-01-29T09:21:42.471Z,8.10
2019-01-29T09:24:11.238Z,9.10
2019-01-29T09:26:40.534Z,8.87
2019-01-29T09:31:53.348Z,9.30
2019-01-29T09:34:22.224Z,9.60
2019-01-29T09:36:50.992Z,9.83
2019-01-29T09:39:29.397Z,10.27
2019-01-29T09:41:58.432Z,10.37
2019-01-29T09:44:30.172Z,10.57
2019-01-29T09:47:01.969Z,10.20
2019-01-29T09:49:39.947Z,10.73
2019-01-29T09:52:08.792Z,9.33
2019-01-29T09:54:37.645Z,9.13
2019-01-29T09:57:09.154Z,8.60
2019-01-29T09:59:46.821Z,9.13
2019-01-29T10:02:15.652Z,8.67
2019-01-29T10:04:44.754Z,8.70
2019-01-29T10:07:13.550Z,7.73
2019-01-29T10:09:51.951Z,7.70
2019-01-29T10:12:21.016Z,7.23
2019-01-29T10:14:52.110Z,7.50
2019-01-29T10:17:23.159Z,7.87
2019-01-29T10:20:02.633Z,7.40
2019-01-29T10:22:31.792Z,8.13
2019-01-29T10:25:00.569Z,8.17
2019-01-29T10:27:29.680Z,8.27
2019-01-29T10:30:08.909Z,7.70
2019-01-29T10:32:37.676Z,8.07
2019-01-29T10:35:08.387Z,6.83
2019-01-29T10:37:37.093Z,6.57
2019-01-29T10:40:07.815Z,6.63
2019-01-29T10:42:36.725Z,6.23
2019-01-29T10:45:09.427Z,6.53
2019-01-29T10:47:38.173Z,5.47
2019-01-29T10:50:19.516Z,5.67
2019-01-29T10:52:49.468Z,4.43
2019-01-29T10:55:18.268Z,4.60
2019-01-29T10:57:46.999Z,4.87
2019-01-29T11:00:48.089Z,4.87
2019-01-29T11:03:17.139Z,3.83
2019-01-29T11:05:46.341Z,6.23
2019-01-29T11:08:15.309Z,6.10
2019-01-29T11:10:56.662Z,4.30
2019-01-29T11:13:25.695Z,5.33
2019-01-29T11:15:54.574Z,5.13
2019-01-29T11:18:23.326Z,5.40
2019-01-29T11:21:01.298Z,4.90
2019-01-29T11:23:29.995Z,5.47
2019-01-29T11:25:59.140Z,4.53
2019-01-29T11:28:28.243Z,4.77
2019-01-29T11:31:07.011Z,4.50
2019-01-29T11:33:35.746Z,5.50
2019-01-29T11:36:04.833Z,5.30
2019-01-29T11:38:33.587Z,5.97
2019-01-29T11:41:11.499Z,4.97
2019-01-29T11:43:40.216Z,5.57
2019-01-29T11:46:08.944Z,5.37
2019-01-29T11:48:38.137Z,5.50
2019-01-29T11:51:15.784Z,5.00
2019-01-29T11:53:44.490Z,5.60
2019-01-29T11:56:15.279Z,6.60
2019-01-29T11:58:44.044Z,6.23
2019-01-29T12:01:25.029Z,5.70
2019-01-29T12:04:04.913Z,5.50
2019-01-29T12:06:33.817Z,6.03
2019-01-29T12:09:02.830Z,5.60
2019-01-29T12:11:40.599Z,4.73
2019-01-29T12:14:09.902Z,5.77
2019-01-29T12:16:38.573Z,5.80
2019-01-29T12:19:07.678Z,6.50
2019-01-29T12:21:48.583Z,5.03
2019-01-29T12:24:17.354Z,6.60
2019-01-29T12:26:46.042Z,5.63
2019-01-29T12:29:14.850Z,5.17
2019-01-29T12:31:44.896Z,4.87
2019-01-29T12:34:17.591Z,5.17
2019-01-29T12:36:46.251Z,4.60
2019-01-29T12:39:15.054Z,5.23
2019-01-29T12:41:53.416Z,4.37
2019-01-29T12:44:22.149Z,4.50
2019-01-29T12:46:54.080Z,4.50
2019-01-29T12:49:22.868Z,3.97
2019-01-29T12:52:06.469Z,4.07
2019-01-29T12:54:35.385Z,4.03
2019-01-29T12:57:04.494Z,4.63
2019-01-29T12:59:33.397Z,5.20
2019-01-29T13:04:45.614Z,5.30
2019-01-29T13:07:14.448Z,4.87
2019-01-29T13:09:46.363Z,4.80
2019-01-29T13:12:24.551Z,4.20
2019-01-29T13:14:53.264Z,5.27
2019-01-29T13:17:21.960Z,5.23
2019-01-29T13:19:53.116Z,4.37
2019-01-29T13:22:31.076Z,4.40
2019-01-29T13:25:00.185Z,4.27
2019-01-29T13:27:29.414Z,4.93
2019-01-29T13:29:58.384Z,3.67
2019-01-29T13:32:37.356Z,4.50
2019-01-29T13:35:06.753Z,3.90
2019-01-29T13:37:35.728Z,4.30
2019-01-29T13:40:06.064Z,3.80
2019-01-29T13:42:45.002Z,3.97
2019-01-29T13:45:14.194Z,4.10
2019-01-29T13:47:43.553Z,4.00
2019-01-29T13:50:15.863Z,3.27
2019-01-29T13:52:53.968Z,4.00
2019-01-29T13:55:22.654Z,3.30
2019-01-29T13:57:51.542Z,3.93
2019-01-29T14:00:23.745Z,3.57
2019-01-29T14:03:01.905Z,3.43
2019-01-29T14:05:30.753Z,3.23
2019-01-29T14:07:59.520Z,3.60
2019-01-29T14:10:28.367Z,3.60
2019-01-29T14:12:58.670Z,3.93
2019-01-29T14:15:35.769Z,3.50
2019-01-29T14:18:04.910Z,3.57
2019-01-29T14:20:35.523Z,3.50
2019-01-29T14:23:14.207Z,3.77
2019-01-29T14:25:43.271Z,4.00
2019-01-29T14:28:12.176Z,3.90
2019-01-29T14:30:42.259Z,3.50
2019-01-29T14:33:20.756Z,3.37
2019-01-29T14:35:52.633Z,3.70
2019-01-29T14:39:03.970Z,3.47
2019-01-29T14:41:43.552Z,3.60
2019-01-29T14:44:21.401Z,3.37
2019-01-29T14:46:50.312Z,3.80
2019-01-29T14:49:19.136Z,3.40
2019-01-29T14:51:57.533Z,3.80
2019-01-29T14:54:26.425Z,3.63
2019-01-29T14:56:57.129Z,3.33
2019-01-29T14:59:25.920Z,3.00
2019-01-29T15:02:04.261Z,3.10
2019-01-29T15:04:33.061Z,3.50
2019-01-29T15:07:01.827Z,3.60
2019-01-29T15:09:30.602Z,3.70
2019-01-29T15:12:20.705Z,3.67
2019-01-29T15:14:49.536Z,4.03
2019-01-29T15:17:40.244Z,3.40
2019-01-29T15:20:10.601Z,3.47
2019-01-29T15:22:48.769Z,3.50
2019-01-29T15:25:17.893Z,3.67
2019-01-29T15:27:46.718Z,4.23
2019-01-29T15:30:21.643Z,3.50
2019-01-29T15:33:02.763Z,3.43
2019-01-29T15:35:32.268Z,3.43
2019-01-29T15:38:01.301Z,4.37
2019-01-29T15:40:30.270Z,3.60
2019-01-29T15:45:42.966Z,4.03
2019-01-29T15:48:15.257Z,4.83
2019-01-29T15:50:46.410Z,4.17
2019-01-29T15:53:25.433Z,4.90
2019-01-29T15:55:54.158Z,5.53
2019-01-29T15:58:22.856Z,5.10
2019-01-29T16:00:52.024Z,5.23
2019-01-29T16:03:30.096Z,4.63
2019-01-29T16:05:58.781Z,5.70
2019-01-29T16:08:30.483Z,5.57
2019-01-29T16:11:02.275Z,5.40
2019-01-29T16:13:30.999Z,5.23
2019-01-29T16:15:59.662Z,4.97
2019-01-29T16:18:31.509Z,5.07
2019-01-29T16:21:00.452Z,4.67
2019-01-29T16:23:38.337Z,4.30
2019-01-29T16:26:07.041Z,5.17
2019-01-29T16:28:35.864Z,4.83
2019-01-29T16:31:04.699Z,4.43
2019-01-29T16:33:42.944Z,4.10
2019-01-29T16:36:11.748Z,4.50
2019-01-29T16:38:40.493Z,8.07
2019-01-29T16:41:09.180Z,7.43
2019-01-29T16:43:47.402Z,6.07
2019-01-29T16:46:16.289Z,6.20
2019-01-29T16:48:45.161Z,7.57
2019-01-29T16:51:13.958Z,7.07
2019-01-29T16:53:51.664Z,6.93
2019-01-29T16:56:20.553Z,8.43
2019-01-29T16:58:52.279Z,8.20
2019-01-29T17:01:21.086Z,8.77
2019-01-29T17:03:59.286Z,8.80
2019-01-29T17:06:28.184Z,8.63
2019-01-29T17:08:57.294Z,8.67
2019-01-29T17:11:26.087Z,7.63
2019-01-29T17:13:54.841Z,7.93
2019-01-29T17:16:23.567Z,7.80
2019-01-29T17:18:52.380Z,7.90
2019-01-29T17:21:21.237Z,7.50
2019-01-29T17:23:59.550Z,7.50
2019-01-29T17:26:28.459Z,8.33
2019-01-29T17:28:57.160Z,8.53
2019-01-29T17:31:25.875Z,7.67
2019-01-29T17:34:03.601Z,6.97
2019-01-29T17:36:32.477Z,7.07
2019-01-29T17:39:01.169Z,6.83
2019-01-29T17:41:29.928Z,5.93
2019-01-29T17:44:07.896Z,6.77
2019-01-29T17:46:39.659Z,6.90
2019-01-29T17:49:08.335Z,7.10
2019-01-29T17:51:37.071Z,6.67
2019-01-29T17:54:14.996Z,8.20
2019-01-29T17:56:44.063Z,8.20
2019-01-29T17:59:15.224Z,7.23
2019-01-29T18:01:44.220Z,7.13
2019-01-29T18:04:21.796Z,7.40
2019-01-29T18:06:51.732Z,7.20
2019-01-29T18:09:20.858Z,7.00
2019-01-29T18:11:49.749Z,6.03
2019-01-29T18:14:39.931Z,6.53
2019-01-29T18:17:08.662Z,6.33
2019-01-29T18:19:37.418Z,6.17
2019-01-29T18:22:07.360Z,6.10
2019-01-29T18:24:45.320Z,6.03
2019-01-29T18:27:14.138Z,6.00
2019-01-29T18:29:45.780Z,5.80
2019-01-29T18:32:15.189Z,6.13
2019-01-29T18:34:52.984Z,6.30
2019-01-29T18:37:21.754Z,5.50
2019-01-29T18:39:51.947Z,5.77
2019-01-29T18:42:20.917Z,6.03
2019-01-29T18:47:35.352Z,6.00
2019-01-29T18:50:04.894Z,5.80
2019-01-29T18:52:33.721Z,5.53
2019-01-29T18:55:11.868Z,6.00
2019-01-29T18:57:40.917Z,6.47
2019-01-29T19:00:14.880Z,6.47
2019-01-29T19:02:46.993Z,6.50
2019-01-29T19:05:24.957Z,7.30
2019-01-29T19:07:53.631Z,7.23
2019-01-29T19:10:22.815Z,6.57
2019-01-29T19:12:51.777Z,7.33
2019-01-29T19:15:22.692Z,8.07
2019-01-29T19:17:51.445Z,7.40
2019-01-29T19:20:22.233Z,8.63
2019-01-29T19:22:51.060Z,7.87
2019-01-29T19:25:30.159Z,7.90
2019-01-29T19:28:02.044Z,8.80
2019-01-29T19:30:33.222Z,9.13
2019-01-29T19:33:01.933Z,8.77
2019-01-29T19:35:39.841Z,8.23
2019-01-29T19:38:08.630Z,8.13
2019-01-29T19:40:40.353Z,9.20
2019-01-29T19:43:08.338Z,8.47
2019-01-29T19:45:46.482Z,9.20
2019-01-29T19:48:15.626Z,8.57
2019-01-29T19:50:47.674Z,9.03
2019-01-29T19:53:16.742Z,8.93
2019-01-29T19:55:54.676Z,9.23
2019-01-29T19:58:31.999Z,8.87
2019-01-29T20:00:53.798Z,9.50
2019-01-29T20:03:22.595Z,8.77
2019-01-29T20:06:00.688Z,9.00
2019-01-29T20:08:29.452Z,9.73
2019-01-29T20:10:58.240Z,10.07
2019-01-29T20:13:27.033Z,9.83
2019-01-29T20:16:16.643Z,9.47
2019-01-29T20:18:45.620Z,9.53
2019-01-29T20:21:16.181Z,10.00
2019-01-29T20:23:44.905Z,10.40
2019-01-29T20:26:22.972Z,9.17
2019-01-29T20:28:53.468Z,9.53
2019-01-29T20:31:22.200Z,9.30
2019-01-29T20:33:54.200Z,10.13
2019-01-29T20:36:32.599Z,10.57
2019-01-29T20:39:01.914Z,10.20
2019-01-29T20:41:30.721Z,9.23
2019-01-29T20:43:59.747Z,10.77
2019-01-29T20:49:11.712Z,11.00
2019-01-29T20:51:40.538Z,9.60
2019-01-29T20:54:13.403Z,10.23
2019-01-29T20:57:05.577Z,11.67
2019-01-29T20:59:35.315Z,11.67
2019-01-29T21:02:06.019Z,11.57
2019-01-29T21:04:34.688Z,11.50
2019-01-29T21:07:15.505Z,11.73
2019-01-29T21:09:46.537Z,11.37
2019-01-29T21:12:15.292Z,11.90
2019-01-29T21:14:44.157Z,10.90
2019-01-29T21:17:13.401Z,11.60
2019-01-29T21:19:42.226Z,11.53
2019-01-29T21:22:11.003Z,10.77
2019-01-29T21:24:39.691Z,11.00
2019-01-29T21:27:17.533Z,10.67
2019-01-29T21:29:46.380Z,11.13
2019-01-29T21:32:15.075Z,10.33
2019-01-29T21:34:43.808Z,10.97
2019-01-29T21:37:22.911Z,11.17
2019-01-29T21:39:53.713Z,12.20
2019-01-29T21:42:22.466Z,11.43
2019-01-29T21:44:51.519Z,11.67
2019-01-29T21:47:32.393Z,11.90
2019-01-29T21:50:11.064Z,12.67
2019-01-29T21:52:31.761Z,11.50
2019-01-29T21:55:00.466Z,12.60
2019-01-29T21:57:38.564Z,13.07
2019-01-29T22:00:12.956Z,12.93
2019-01-29T22:02:41.932Z,13.37
2019-01-29T22:05:11.361Z,12.67
2019-01-29T22:10:23.941Z,12.60
2019-01-29T22:12:52.748Z,13.50
2019-01-29T22:15:23.534Z,13.90
2019-01-29T22:17:52.276Z,13.97
2019-01-29T22:20:24.075Z,13.33
2019-01-29T22:22:53.140Z,13.20
2019-01-29T22:25:21.999Z,13.43
2019-01-29T22:28:00.034Z,13.43
2019-01-29T22:30:33.465Z,13.67
2019-01-29T22:33:02.236Z,14.77
2019-01-29T22:35:30.996Z,13.53
2019-01-29T22:38:12.254Z,14.00
2019-01-29T22:40:41.162Z,14.83
2019-01-29T22:43:09.897Z,13.27
2019-01-29T22:45:38.636Z,14.00
2019-01-29T22:48:22.000Z,14.90
2019-01-29T22:50:53.997Z,13.90
2019-01-29T22:53:22.662Z,14.10
2019-01-29T22:55:54.241Z,13.80
2019-01-29T22:58:32.361Z,14.33
2019-01-29T23:01:34.998Z,14.83
2019-01-29T23:04:14.801Z,14.20
2019-01-29T23:07:37.667Z,14.13
2019-01-29T23:10:30.213Z,13.03
2019-01-29T23:13:05.367Z,13.60
2019-01-29T23:15:34.181Z,13.53
2019-01-29T23:18:02.877Z,15.60
2019-01-29T23:20:31.716Z,15.27
2019-01-29T23:23:00.443Z,14.80
2019-01-29T23:25:31.487Z,16.17
2019-01-29T23:30:43.586Z,16.40
2019-01-29T23:33:14.632Z,15.03
2019-01-29T23:35:43.609Z,16.50
2019-01-29T23:38:23.140Z,15.40
2019-01-29T23:40:52.143Z,16.00
2019-01-29T23:43:20.981Z,15.50
2019-01-29T23:45:49.877Z,17.00
2019-01-29T23:48:27.791Z,16.23
2019-01-29T23:50:56.550Z,15.97
2019-01-29T23:53:25.440Z,15.80
2019-01-29T23:55:54.088Z,16.60
2019-01-29T23:58:31.675Z,17.73
